Littlesburg, West Virginia
Current Conditions -  °F | °C
As of 12:52 AM on Friday 28 Nov 2014 (Local Time) from KBLF Reporting Station
Light Snow Light Snow  
Wind Chill: -10°   Ceiling: 1300
Heat Index: -4°   Visibility: 8mi
Dew Point: -8°   Wind: 12mph
Humidity: 75%   Direction: 300°WNW
Pressure: 30.21"   Gusts: 21mph
Location:  37.2994°N, 81.226°W
Report Text: KBLF 280552Z AUTO 30010G18KT 8SM -SN BKN013 OVC020 M04/M08 A3021 RMK AO2 SLP252 P0000 60000 T10391078 11028 21039 56006 $
Loading
Personal Weather Stations






























Interactive Weather Map New forecast layout! Learn more

10-Day Weather Forecast

Advertisements
Track Severe Weather on mobile